createdAt,value
2019-05-25T00:00:48.293Z,0.00
2019-05-25T00:01:48.285Z,0.00
2019-05-25T00:02:48.281Z,0.00
2019-05-25T00:03:48.258Z,0.00
2019-05-25T00:04:48.265Z,0.00
2019-05-25T00:05:48.236Z,0.00
2019-05-25T00:06:48.225Z,0.00
2019-05-25T00:07:48.213Z,0.00
2019-05-25T00:08:53.224Z,0.00
2019-05-25T00:09:48.689Z,0.00
2019-05-25T00:10:48.184Z,0.00
2019-05-25T00:11:48.170Z,0.00
2019-05-25T00:12:48.159Z,0.00
2019-05-25T00:13:48.151Z,0.00
2019-05-25T00:14:48.154Z,0.00
2019-05-25T00:15:48.123Z,0.00
2019-05-25T00:16:48.121Z,0.00
2019-05-25T00:17:48.101Z,0.00
2019-05-25T00:18:48.138Z,0.00
2019-05-25T00:19:53.113Z,0.00
2019-05-25T00:20:48.069Z,0.00
2019-05-25T00:21:48.057Z,0.00
2019-05-25T00:22:48.051Z,0.00
2019-05-25T00:23:48.033Z,0.00
2019-05-25T00:24:48.034Z,0.00
2019-05-25T00:25:48.027Z,0.00
2019-05-25T00:26:47.999Z,0.00
2019-05-25T00:27:47.989Z,0.00
2019-05-25T00:28:47.977Z,0.00
2019-05-25T00:29:47.974Z,0.00
2019-05-25T00:30:52.981Z,0.00
2019-05-25T00:31:47.951Z,0.00
2019-05-25T00:32:47.934Z,0.00
2019-05-25T00:33:47.925Z,0.00
2019-05-25T00:34:47.956Z,0.00
2019-05-25T00:35:47.921Z,0.00
2019-05-25T00:36:47.929Z,0.00
2019-05-25T00:37:47.907Z,0.00
2019-05-25T00:38:47.892Z,0.00
2019-05-25T00:39:47.903Z,0.00
2019-05-25T00:40:47.850Z,0.00
2019-05-25T00:41:52.855Z,0.00
2019-05-25T00:42:47.866Z,0.00
2019-05-25T00:43:47.929Z,0.00
2019-05-25T00:44:47.831Z,0.00
2019-05-25T00:45:47.799Z,0.00
2019-05-25T00:46:47.781Z,0.00
2019-05-25T00:47:47.764Z,0.00
2019-05-25T00:48:47.765Z,0.00
2019-05-25T00:49:47.778Z,0.00
2019-05-25T00:50:47.749Z,0.00
2019-05-25T00:51:47.733Z,0.00
2019-05-25T00:52:52.739Z,0.00
2019-05-25T00:53:47.710Z,0.00
2019-05-25T00:54:47.732Z,0.00
2019-05-25T00:55:47.710Z,0.00
2019-05-25T00:56:47.720Z,0.00
2019-05-25T00:57:47.653Z,0.00
2019-05-25T00:58:47.647Z,0.00
2019-05-25T00:59:47.631Z,0.00
2019-05-25T01:00:47.659Z,0.00
2019-05-25T01:01:47.636Z,0.00
2019-05-25T01:02:47.610Z,0.00
2019-05-25T01:03:52.617Z,0.00
2019-05-25T01:04:47.588Z,0.00
2019-05-25T01:05:47.587Z,0.00
2019-05-25T01:06:47.562Z,0.00
2019-05-25T01:07:47.552Z,0.00
2019-05-25T01:08:47.531Z,0.00
2019-05-25T01:09:47.519Z,0.00
2019-05-25T01:10:47.535Z,0.00
2019-05-25T01:11:47.528Z,0.00
2019-05-25T01:12:47.485Z,0.00
2019-05-25T01:13:47.503Z,0.00
2019-05-25T01:14:52.517Z,0.00
2019-05-25T01:15:47.473Z,0.00
2019-05-25T01:16:47.450Z,0.00
2019-05-25T01:17:47.430Z,0.00
2019-05-25T01:18:47.423Z,0.00
2019-05-25T01:19:47.422Z,0.00
2019-05-25T01:20:47.427Z,0.00
2019-05-25T01:21:47.397Z,0.00
2019-05-25T01:22:47.393Z,0.00
2019-05-25T01:23:47.392Z,0.00
2019-05-25T01:24:47.356Z,0.00
2019-05-25T01:25:52.390Z,0.00
2019-05-25T01:26:47.342Z,0.00
2019-05-25T01:27:47.324Z,0.00
2019-05-25T01:28:47.342Z,0.00
2019-05-25T01:29:47.316Z,0.00
2019-05-25T01:30:47.344Z,0.00
2019-05-25T01:31:47.281Z,0.00
2019-05-25T01:32:47.272Z,0.00
2019-05-25T01:33:47.258Z,0.00
2019-05-25T01:34:47.268Z,0.00
2019-05-25T01:35:47.272Z,0.00
2019-05-25T01:36:52.253Z,0.00
2019-05-25T01:37:48.680Z,0.00
2019-05-25T01:38:47.210Z,0.00
2019-05-25T01:39:47.210Z,0.00
2019-05-25T01:40:47.210Z,0.00
2019-05-25T01:41:47.216Z,0.00
2019-05-25T01:42:47.165Z,0.00
2019-05-25T01:43:47.142Z,0.00
2019-05-25T01:44:47.133Z,0.00
2019-05-25T01:45:47.169Z,0.00
2019-05-25T01:46:47.117Z,0.00
2019-05-25T01:47:52.126Z,0.00
2019-05-25T01:48:47.095Z,0.00
2019-05-25T01:49:47.088Z,0.00
2019-05-25T01:50:47.090Z,0.00
2019-05-25T01:51:47.066Z,0.00
2019-05-25T01:52:47.056Z,0.00
2019-05-25T01:53:47.041Z,0.00
2019-05-25T01:54:59.542Z,0.00
2019-05-25T01:55:48.064Z,0.00
2019-05-25T01:56:47.004Z,0.00
2019-05-25T01:57:47.037Z,0.00
2019-05-25T01:58:52.020Z,0.00
2019-05-25T01:59:46.968Z,0.00
2019-05-25T02:00:46.965Z,0.00
2019-05-25T02:01:46.965Z,0.00
2019-05-25T02:02:46.937Z,0.00
2019-05-25T02:03:46.975Z,0.00
2019-05-25T02:04:46.919Z,0.00
2019-05-25T02:05:46.945Z,0.00
2019-05-25T02:06:46.919Z,0.00
2019-05-25T02:07:46.905Z,0.00
2019-05-25T02:08:46.878Z,0.00
2019-05-25T02:09:51.882Z,0.00
2019-05-25T02:10:46.862Z,0.00
2019-05-25T02:11:46.882Z,0.00
2019-05-25T02:12:46.836Z,0.00
2019-05-25T02:13:46.818Z,0.00
2019-05-25T02:14:46.802Z,0.00
2019-05-25T02:15:46.797Z,0.00
2019-05-25T02:16:46.807Z,0.00
2019-05-25T02:17:46.771Z,0.00
2019-05-25T02:18:46.770Z,0.00
2019-05-25T02:19:46.754Z,0.00
2019-05-25T02:20:51.759Z,0.00
2019-05-25T02:21:46.761Z,0.00
2019-05-25T02:22:46.715Z,0.00
2019-05-25T02:23:46.709Z,0.00
2019-05-25T02:24:46.712Z,0.00
2019-05-25T02:25:46.689Z,0.00
2019-05-25T02:26:46.711Z,0.00
2019-05-25T02:27:46.669Z,0.00
2019-05-25T02:28:46.647Z,0.00
2019-05-25T02:29:46.648Z,0.00
2019-05-25T02:30:46.652Z,0.00
2019-05-25T02:31:51.674Z,0.00
2019-05-25T02:32:46.664Z,0.00
2019-05-25T02:33:46.604Z,0.00
2019-05-25T02:34:46.592Z,0.00
2019-05-25T02:35:46.596Z,0.00
2019-05-25T02:36:46.583Z,0.00
2019-05-25T02:37:46.579Z,0.00
2019-05-25T02:38:46.556Z,0.00
2019-05-25T02:39:46.534Z,0.00
2019-05-25T02:40:46.531Z,0.00
2019-05-25T02:41:46.502Z,0.00
2019-05-25T02:42:51.548Z,0.00
2019-05-25T02:43:46.489Z,0.00
2019-05-25T02:44:46.484Z,0.00
2019-05-25T02:45:46.469Z,0.00
2019-05-25T02:46:46.455Z,0.00
2019-05-25T02:47:46.495Z,0.00
2019-05-25T02:48:46.436Z,0.00
2019-05-25T02:49:46.424Z,0.00
2019-05-25T02:50:46.455Z,0.00
2019-05-25T02:51:46.396Z,0.00
2019-05-25T02:52:46.402Z,0.00
2019-05-25T02:53:51.421Z,0.00
2019-05-25T02:54:46.369Z,0.00
2019-05-25T02:55:46.351Z,0.00
2019-05-25T02:56:46.341Z,0.00
2019-05-25T02:57:46.378Z,0.00
2019-05-25T02:58:46.332Z,0.00
2019-05-25T02:59:46.309Z,0.00
2019-05-25T03:00:46.297Z,0.00
2019-05-25T03:01:46.287Z,0.00
2019-05-25T03:02:46.334Z,0.00
2019-05-25T03:03:46.309Z,0.00
2019-05-25T03:04:51.272Z,4.00
2019-05-25T03:05:46.248Z,4.00
2019-05-25T03:06:46.244Z,4.00
2019-05-25T03:07:46.251Z,0.00
2019-05-25T03:08:46.261Z,4.00
2019-05-25T03:09:46.203Z,4.00
2019-05-25T03:10:46.185Z,4.00
2019-05-25T03:11:46.183Z,4.00
2019-05-25T03:12:46.190Z,8.00
2019-05-25T03:13:46.151Z,4.00
2019-05-25T03:14:46.147Z,8.00
2019-05-25T03:15:51.164Z,8.00
2019-05-25T03:16:46.123Z,8.00
2019-05-25T03:17:46.136Z,12.00
2019-05-25T03:18:46.097Z,8.00
2019-05-25T03:19:46.095Z,12.00
2019-05-25T03:20:46.100Z,12.00
2019-05-25T03:21:46.068Z,16.00
2019-05-25T03:22:46.070Z,16.00
2019-05-25T03:23:46.045Z,20.00
2019-05-25T03:24:46.042Z,20.00
2019-05-25T03:25:49.492Z,24.00
2019-05-25T03:26:51.041Z,24.00
2019-05-25T03:27:46.034Z,28.00
2019-05-25T03:28:46.027Z,28.00
2019-05-25T03:29:46.023Z,32.00
2019-05-25T03:30:45.973Z,36.00
2019-05-25T03:31:46.053Z,40.00
2019-05-25T03:32:45.983Z,40.00
2019-05-25T03:33:45.975Z,48.00
2019-05-25T03:34:45.920Z,48.00
2019-05-25T03:35:45.909Z,52.00
2019-05-25T03:36:45.912Z,56.00
2019-05-25T03:37:50.934Z,56.00
2019-05-25T03:38:45.880Z,64.00
2019-05-25T03:39:45.871Z,68.00
2019-05-25T03:40:45.855Z,72.00
2019-05-25T03:41:45.842Z,76.00
2019-05-25T03:42:45.856Z,84.00
2019-05-25T03:43:45.817Z,88.00
2019-05-25T03:44:45.810Z,92.00
2019-05-25T03:45:45.806Z,96.00
2019-05-25T03:46:45.784Z,100.00
2019-05-25T03:47:45.823Z,108.00
2019-05-25T03:48:50.840Z,112.00
2019-05-25T03:49:45.754Z,112.00
2019-05-25T03:50:45.749Z,120.00
2019-05-25T03:51:45.738Z,128.00
2019-05-25T03:52:45.715Z,136.00
2019-05-25T03:53:45.732Z,140.00
2019-05-25T03:54:45.717Z,152.00
2019-05-25T03:55:45.684Z,160.00
2019-05-25T03:56:45.682Z,168.00
2019-05-25T03:57:45.659Z,176.00
2019-05-25T03:58:45.660Z,184.00
2019-05-25T03:59:50.673Z,188.00
2019-05-25T04:00:45.631Z,192.00
2019-05-25T04:01:45.618Z,204.00
2019-05-25T04:02:45.616Z,204.00
2019-05-25T04:03:45.606Z,212.00
2019-05-25T04:04:45.583Z,216.00
2019-05-25T04:05:45.578Z,220.00
2019-05-25T04:06:45.558Z,232.00
2019-05-25T04:07:45.550Z,248.00
2019-05-25T04:08:45.547Z,256.00
2019-05-25T04:09:45.527Z,276.00
2019-05-25T04:10:50.541Z,276.00
2019-05-25T04:11:45.505Z,272.00
2019-05-25T04:12:45.504Z,264.00
2019-05-25T04:13:45.490Z,256.00
2019-05-25T04:14:45.471Z,260.00
2019-05-25T04:15:45.462Z,268.00
2019-05-25T04:16:45.450Z,284.00
2019-05-25T04:17:45.455Z,272.00
2019-05-25T04:18:45.447Z,276.00
2019-05-25T04:19:45.416Z,288.00
2019-05-25T04:20:45.407Z,296.00
2019-05-25T04:21:50.417Z,316.00
2019-05-25T04:22:45.389Z,316.00
2019-05-25T04:23:45.396Z,340.00
2019-05-25T04:24:45.357Z,352.00
2019-05-25T04:25:45.369Z,356.00
2019-05-25T04:26:45.337Z,376.00
2019-05-25T04:27:45.324Z,400.00
2019-05-25T04:28:45.318Z,388.00
2019-05-25T04:29:45.314Z,400.00
2019-05-25T04:30:45.296Z,396.00
2019-05-25T04:31:45.280Z,412.00
2019-05-25T04:32:50.292Z,412.00
2019-05-25T04:33:45.264Z,416.00
2019-05-25T04:34:45.269Z,408.00
2019-05-25T04:35:45.241Z,412.00
2019-05-25T04:36:45.225Z,432.00
2019-05-25T04:37:45.218Z,440.00
2019-05-25T04:38:45.218Z,416.00
2019-05-25T04:39:45.202Z,420.00
2019-05-25T04:40:45.180Z,408.00
2019-05-25T04:41:45.173Z,420.00
2019-05-25T04:42:45.161Z,416.00
2019-05-25T04:43:50.171Z,408.00
2019-05-25T04:44:45.164Z,404.00
2019-05-25T04:45:45.128Z,404.00
2019-05-25T04:46:45.115Z,396.00
2019-05-25T04:47:45.163Z,392.00
2019-05-25T04:48:45.093Z,396.00
2019-05-25T04:49:45.091Z,404.00
2019-05-25T04:50:45.067Z,416.00
2019-05-25T04:51:45.057Z,436.00
2019-05-25T04:52:45.046Z,432.00
2019-05-25T04:53:45.034Z,436.00
2019-05-25T04:54:50.066Z,444.00
2019-05-25T04:55:45.012Z,436.00
2019-05-25T04:56:45.002Z,464.00
2019-05-25T04:57:44.995Z,448.00
2019-05-25T04:58:44.978Z,456.00
2019-05-25T04:59:44.978Z,472.00
2019-05-25T05:00:44.963Z,496.00
2019-05-25T05:01:44.957Z,524.00
2019-05-25T05:02:44.942Z,548.00
2019-05-25T05:03:44.922Z,584.00
2019-05-25T05:04:44.932Z,620.00
2019-05-25T05:05:49.926Z,636.00
2019-05-25T05:06:44.893Z,660.00
2019-05-25T05:07:44.882Z,696.00
2019-05-25T05:08:44.871Z,768.00
2019-05-25T05:09:44.855Z,784.00
2019-05-25T05:10:44.856Z,844.00
2019-05-25T05:11:44.834Z,920.00
2019-05-25T05:12:44.823Z,1000.00
2019-05-25T05:13:44.814Z,1052.00
2019-05-25T05:14:44.802Z,1096.00
2019-05-25T05:15:44.803Z,1124.00
2019-05-25T05:16:49.805Z,1132.00
2019-05-25T05:17:44.767Z,1108.00
2019-05-25T05:18:44.756Z,1088.00
2019-05-25T05:19:44.742Z,1024.00
2019-05-25T05:20:44.744Z,1048.00
2019-05-25T05:21:44.748Z,1080.00
2019-05-25T05:22:44.710Z,1176.00
2019-05-25T05:23:44.700Z,1232.00
2019-05-25T05:24:44.690Z,1332.00
2019-05-25T05:25:44.690Z,1332.00
2019-05-25T05:26:55.447Z,1324.00
2019-05-25T05:27:50.679Z,1336.00
2019-05-25T05:28:44.644Z,1328.00
2019-05-25T05:29:44.635Z,1344.00
2019-05-25T05:30:44.633Z,1276.00
2019-05-25T05:31:44.614Z,1308.00
2019-05-25T05:32:44.599Z,1292.00
2019-05-25T05:33:44.589Z,1216.00
2019-05-25T05:34:44.580Z,1300.00
2019-05-25T05:35:44.587Z,1352.00
2019-05-25T05:36:44.558Z,1388.00
2019-05-25T05:37:44.552Z,1404.00
2019-05-25T05:38:49.557Z,1412.00
2019-05-25T05:39:44.522Z,1472.00
2019-05-25T05:40:44.523Z,1400.00
2019-05-25T05:41:44.500Z,1424.00
2019-05-25T05:42:44.488Z,1468.00
2019-05-25T05:43:44.476Z,1444.00
2019-05-25T05:44:44.476Z,1388.00
2019-05-25T05:45:44.465Z,1460.00
2019-05-25T05:46:44.457Z,1404.00
2019-05-25T05:47:44.433Z,1448.00
2019-05-25T05:48:44.426Z,1436.00
2019-05-25T05:49:49.434Z,1492.00
2019-05-25T05:50:44.426Z,1528.00
2019-05-25T05:51:44.388Z,1604.00
2019-05-25T05:52:44.377Z,1668.00
2019-05-25T05:53:44.372Z,1676.00
2019-05-25T05:54:44.356Z,1648.00
2019-05-25T05:55:44.362Z,1724.00
2019-05-25T05:56:44.334Z,1696.00
2019-05-25T05:57:44.328Z,1724.00
2019-05-25T05:58:44.309Z,1700.00
2019-05-25T05:59:44.299Z,1688.00
2019-05-25T06:00:49.322Z,1624.00
2019-05-25T06:01:44.291Z,1596.00
2019-05-25T06:02:44.270Z,1640.00
2019-05-25T06:03:44.260Z,1824.00
2019-05-25T06:04:44.261Z,1988.00
2019-05-25T06:05:44.231Z,2176.00
2019-05-25T06:06:44.233Z,2260.00
2019-05-25T06:07:44.220Z,2196.00
2019-05-25T06:08:44.199Z,2096.00
2019-05-25T06:09:44.189Z,2060.00
2019-05-25T06:10:44.175Z,1884.00
2019-05-25T06:11:49.209Z,1792.00
2019-05-25T06:12:44.161Z,1848.00
2019-05-25T06:13:44.154Z,1988.00
2019-05-25T06:14:44.135Z,2248.00
2019-05-25T06:15:44.127Z,2352.00
2019-05-25T06:16:44.125Z,2464.00
2019-05-25T06:17:44.101Z,2424.00
2019-05-25T06:18:44.093Z,2560.00
2019-05-25T06:19:44.099Z,2776.00
2019-05-25T06:20:44.066Z,3068.00
2019-05-25T06:21:44.109Z,3204.00
2019-05-25T06:22:49.069Z,3284.00
2019-05-25T06:23:44.033Z,3384.00
2019-05-25T06:24:44.026Z,3452.00
2019-05-25T06:25:44.012Z,3404.00
2019-05-25T06:26:44.014Z,3564.00
2019-05-25T06:27:43.991Z,3776.00
2019-05-25T06:28:43.979Z,3644.00
2019-05-25T06:29:43.977Z,3436.00
2019-05-25T06:30:43.965Z,3532.00
2019-05-25T06:31:43.974Z,3196.00
2019-05-25T06:32:43.934Z,2936.00
2019-05-25T06:33:48.945Z,2984.00
2019-05-25T06:34:43.912Z,3192.00
2019-05-25T06:35:43.902Z,2492.00
2019-05-25T06:36:43.896Z,2444.00
2019-05-25T06:37:43.890Z,2356.00
2019-05-25T06:38:43.871Z,2260.00
2019-05-25T06:39:43.857Z,2244.00
2019-05-25T06:40:43.846Z,2376.00
2019-05-25T06:41:43.838Z,2356.00
2019-05-25T06:42:43.842Z,2500.00
2019-05-25T06:43:43.817Z,2568.00
2019-05-25T06:44:48.849Z,2964.00
2019-05-25T06:45:43.799Z,3048.00
2019-05-25T06:46:43.777Z,3412.00
2019-05-25T06:47:43.787Z,3456.00
2019-05-25T06:48:43.760Z,3120.00
2019-05-25T06:49:43.820Z,2984.00
2019-05-25T06:50:43.756Z,2872.00
2019-05-25T06:51:43.732Z,2924.00
2019-05-25T06:52:43.721Z,2884.00
2019-05-25T06:53:43.699Z,2892.00
2019-05-25T06:54:43.689Z,3060.00
2019-05-25T06:55:48.702Z,3288.00
2019-05-25T06:56:43.665Z,3436.00
2019-05-25T06:57:44.067Z,3888.00
2019-05-25T06:58:43.643Z,3860.00
2019-05-25T06:59:43.637Z,4076.00
2019-05-25T07:00:43.620Z,3948.00
2019-05-25T07:01:43.610Z,3896.00
2019-05-25T07:02:43.609Z,3436.00
2019-05-25T07:03:43.584Z,3640.00
2019-05-25T07:04:43.582Z,3728.00
2019-05-25T07:05:43.591Z,3656.00
2019-05-25T07:06:48.576Z,3776.00
2019-05-25T07:07:43.565Z,4388.00
2019-05-25T07:08:43.530Z,4492.00
2019-05-25T07:09:43.532Z,3860.00
2019-05-25T07:10:43.513Z,3984.00
2019-05-25T07:11:43.499Z,4272.00
2019-05-25T07:12:43.498Z,3600.00
2019-05-25T07:13:43.475Z,3480.00
2019-05-25T07:14:43.463Z,3432.00
2019-05-25T07:15:43.458Z,3360.00
2019-05-25T07:16:43.445Z,3824.00
2019-05-25T07:17:48.474Z,4180.00
2019-05-25T07:18:43.418Z,4988.00
2019-05-25T07:19:43.411Z,5296.00
2019-05-25T07:20:43.395Z,4912.00
2019-05-25T07:21:43.385Z,4356.00
2019-05-25T07:22:43.400Z,4420.00
2019-05-25T07:23:43.361Z,4388.00
2019-05-25T07:24:43.349Z,4640.00
2019-05-25T07:25:43.339Z,4740.00
2019-05-25T07:26:43.329Z,4856.00
2019-05-25T07:27:58.178Z,4776.00
2019-05-25T07:28:49.362Z,4068.00
2019-05-25T07:29:43.295Z,3840.00
2019-05-25T07:30:46.503Z,3644.00
2019-05-25T07:31:43.270Z,3696.00
2019-05-25T07:32:43.261Z,3824.00
2019-05-25T07:33:43.267Z,4032.00
2019-05-25T07:34:43.241Z,4160.00
2019-05-25T07:35:43.226Z,4132.00
2019-05-25T07:36:43.213Z,4124.00
2019-05-25T07:37:43.204Z,4332.00
2019-05-25T07:38:43.209Z,4840.00
2019-05-25T07:39:48.204Z,4848.00
2019-05-25T07:40:43.170Z,4836.00
2019-05-25T07:41:43.161Z,5200.00
2019-05-25T07:42:43.147Z,6104.00
2019-05-25T07:43:43.149Z,5476.00
2019-05-25T07:44:43.126Z,5160.00
2019-05-25T07:45:43.127Z,4856.00
2019-05-25T07:46:43.109Z,5060.00
2019-05-25T07:47:43.093Z,4780.00
2019-05-25T07:48:43.118Z,5032.00
2019-05-25T07:49:43.070Z,4956.00
2019-05-25T07:50:48.083Z,5424.00
2019-05-25T07:51:43.047Z,5280.00
2019-05-25T07:52:43.037Z,5740.00
2019-05-25T07:53:43.038Z,5444.00
2019-05-25T07:54:43.015Z,5964.00
2019-05-25T07:55:43.007Z,5760.00
2019-05-25T07:56:42.995Z,5128.00
2019-05-25T07:57:42.979Z,5108.00
2019-05-25T07:58:42.989Z,5964.00
2019-05-25T07:59:42.960Z,6436.00
2019-05-25T08:00:42.952Z,6304.00
2019-05-25T08:01:47.960Z,5680.00
2019-05-25T08:02:42.934Z,5376.00
2019-05-25T08:03:42.959Z,5096.00
2019-05-25T08:04:42.917Z,4628.00
2019-05-25T08:05:42.917Z,4988.00
2019-05-25T08:06:42.886Z,8260.00
2019-05-25T08:07:42.871Z,11832.00
2019-05-25T08:08:42.861Z,14144.00
2019-05-25T08:09:42.889Z,10824.00
2019-05-25T08:10:42.840Z,12208.00
2019-05-25T08:11:42.829Z,9284.00
2019-05-25T08:12:47.849Z,8180.00
2019-05-25T08:13:42.807Z,7852.00
2019-05-25T08:14:45.031Z,8628.00
2019-05-25T08:15:42.782Z,5956.00
2019-05-25T08:16:42.773Z,9844.00
2019-05-25T08:17:42.759Z,8580.00
2019-05-25T08:18:42.801Z,6272.00
2019-05-25T08:19:42.756Z,5992.00
2019-05-25T08:20:42.727Z,6340.00
2019-05-25T08:21:42.725Z,6188.00
2019-05-25T08:22:42.707Z,5904.00
2019-05-25T08:23:47.715Z,6168.00
2019-05-25T08:24:42.693Z,6160.00
2019-05-25T08:25:42.674Z,6244.00
2019-05-25T08:26:42.661Z,6536.00
2019-05-25T08:27:42.650Z,7192.00
2019-05-25T08:28:42.637Z,6644.00
2019-05-25T08:29:42.651Z,8892.00
2019-05-25T08:30:42.622Z,7776.00
2019-05-25T08:31:42.626Z,7740.00
2019-05-25T08:32:42.594Z,8340.00
2019-05-25T08:33:42.584Z,8020.00
2019-05-25T08:34:47.609Z,7988.00
2019-05-25T08:35:42.560Z,8252.00
2019-05-25T08:36:42.552Z,7872.00
2019-05-25T08:37:42.541Z,7960.00
2019-05-25T08:38:42.528Z,7520.00
2019-05-25T08:39:42.528Z,7552.00
2019-05-25T08:40:42.520Z,7236.00
2019-05-25T08:41:45.482Z,7636.00
2019-05-25T08:42:42.483Z,7060.00
2019-05-25T08:43:42.484Z,6936.00
2019-05-25T08:44:42.470Z,8096.00
2019-05-25T08:45:47.493Z,7656.00
2019-05-25T08:46:42.437Z,6840.00
2019-05-25T08:47:42.436Z,6948.00
2019-05-25T08:48:42.416Z,6704.00
2019-05-25T08:49:42.431Z,7264.00
2019-05-25T08:50:42.396Z,6756.00
2019-05-25T08:51:42.385Z,6936.00
2019-05-25T08:52:42.372Z,6112.00
2019-05-25T08:53:43.462Z,6156.00
2019-05-25T08:54:42.368Z,5576.00
2019-05-25T08:55:42.339Z,5604.00
2019-05-25T08:56:47.349Z,5428.00
2019-05-25T08:57:42.314Z,5332.00
2019-05-25T08:58:48.295Z,5284.00
2019-05-25T08:59:43.308Z,5168.00
2019-05-25T09:00:42.292Z,5720.00
2019-05-25T09:01:42.287Z,5604.00
2019-05-25T09:02:42.259Z,5508.00
2019-05-25T09:03:42.247Z,6408.00
2019-05-25T09:04:42.264Z,5764.00
2019-05-25T09:05:42.237Z,5832.00
2019-05-25T09:06:42.219Z,5740.00
2019-05-25T09:07:47.227Z,5436.00
2019-05-25T09:08:42.199Z,6000.00
2019-05-25T09:09:42.181Z,8200.00
2019-05-25T09:10:42.180Z,10084.00
2019-05-25T09:11:42.160Z,7716.00
2019-05-25T09:12:42.156Z,7028.00
2019-05-25T09:13:42.141Z,26464.00
2019-05-25T09:14:42.125Z,6404.00
2019-05-25T09:15:42.129Z,8796.00
2019-05-25T09:16:42.106Z,6668.00
2019-05-25T09:17:42.095Z,6444.00
2019-05-25T09:18:47.109Z,7036.00
2019-05-25T09:19:42.085Z,6292.00
2019-05-25T09:20:42.079Z,5916.00
2019-05-25T09:21:42.048Z,5980.00
2019-05-25T09:22:42.039Z,6108.00
2019-05-25T09:23:42.024Z,10204.00
2019-05-25T09:24:42.015Z,7408.00
2019-05-25T09:25:42.015Z,6524.00
2019-05-25T09:26:41.992Z,6360.00
2019-05-25T09:27:41.991Z,6424.00
2019-05-25T09:28:41.977Z,6632.00
2019-05-25T09:29:46.984Z,7464.00
2019-05-25T09:30:41.972Z,8848.00
2019-05-25T09:31:41.941Z,10068.00
2019-05-25T09:32:41.929Z,10156.00
2019-05-25T09:33:41.918Z,11108.00
2019-05-25T09:34:41.924Z,9524.00
2019-05-25T09:35:41.909Z,10672.00
2019-05-25T09:36:41.885Z,10180.00
2019-05-25T09:37:41.872Z,10500.00
2019-05-25T09:38:43.401Z,12580.00
2019-05-25T09:39:41.854Z,27872.00
2019-05-25T09:40:46.885Z,35072.00
2019-05-25T09:41:41.842Z,36256.00
2019-05-25T09:42:41.839Z,31712.00
2019-05-25T09:43:41.806Z,19104.00
2019-05-25T09:44:41.796Z,14788.00
2019-05-25T09:45:41.785Z,25504.00
2019-05-25T09:46:41.786Z,15840.00
2019-05-25T09:47:41.771Z,8824.00
2019-05-25T09:48:41.776Z,8036.00
2019-05-25T09:49:41.741Z,8540.00
2019-05-25T09:50:41.748Z,8240.00
2019-05-25T09:51:48.584Z,7908.00
2019-05-25T09:52:41.715Z,7316.00
2019-05-25T09:53:41.748Z,10552.00
2019-05-25T09:54:41.687Z,15616.00
2019-05-25T09:55:41.696Z,11284.00
2019-05-25T09:56:41.674Z,11228.00
2019-05-25T09:57:42.049Z,6756.00
2019-05-25T09:58:41.662Z,7168.00
2019-05-25T09:59:41.650Z,6812.00
2019-05-25T10:00:41.631Z,12556.00
2019-05-25T10:01:41.667Z,12160.00
2019-05-25T10:02:46.879Z,6376.00
2019-05-25T10:03:41.587Z,6420.00
2019-05-25T10:04:41.579Z,6360.00
2019-05-25T10:05:41.570Z,6412.00
2019-05-25T10:06:41.566Z,6564.00
2019-05-25T10:07:41.544Z,6500.00
2019-05-25T10:08:41.534Z,6592.00
2019-05-25T10:09:41.541Z,6716.00
2019-05-25T10:10:41.521Z,7208.00
2019-05-25T10:11:41.520Z,7184.00
2019-05-25T10:12:41.487Z,10804.00
2019-05-25T10:13:46.499Z,6976.00
2019-05-25T10:14:41.481Z,6776.00
2019-05-25T10:15:41.456Z,7624.00
2019-05-25T10:16:41.465Z,7488.00
2019-05-25T10:17:41.435Z,7108.00
2019-05-25T10:18:41.426Z,6992.00
2019-05-25T10:19:41.489Z,7484.00
2019-05-25T10:20:41.400Z,6864.00
2019-05-25T10:21:41.412Z,6792.00
2019-05-25T10:22:41.379Z,7324.00
2019-05-25T10:23:41.366Z,6676.00
2019-05-25T10:24:46.379Z,6628.00
2019-05-25T10:25:41.344Z,6692.00
2019-05-25T10:26:41.334Z,7568.00
2019-05-25T10:27:41.338Z,8288.00
2019-05-25T10:28:41.311Z,6624.00
2019-05-25T10:29:41.301Z,7192.00
2019-05-25T10:30:41.287Z,7036.00
2019-05-25T10:31:41.279Z,7332.00
2019-05-25T10:32:41.329Z,7256.00
2019-05-25T10:33:41.285Z,7572.00
2019-05-25T10:34:41.258Z,7660.00
2019-05-25T10:35:46.289Z,7700.00
2019-05-25T10:36:41.218Z,7960.00
2019-05-25T10:37:41.234Z,8600.00
2019-05-25T10:38:41.199Z,8384.00
2019-05-25T10:39:41.211Z,42464.00
2019-05-25T10:40:41.173Z,29504.00
2019-05-25T10:41:41.165Z,14696.00
2019-05-25T10:42:41.190Z,13456.00
2019-05-25T10:43:41.139Z,16128.00
2019-05-25T10:44:41.131Z,10560.00
2019-05-25T10:45:41.126Z,11488.00
2019-05-25T10:46:46.132Z,11172.00
2019-05-25T10:47:41.119Z,13160.00
2019-05-25T10:48:41.140Z,11368.00
2019-05-25T10:49:41.095Z,18560.00
2019-05-25T10:50:41.082Z,9524.00
2019-05-25T10:51:41.053Z,9632.00
2019-05-25T10:52:41.051Z,8816.00
2019-05-25T10:53:41.032Z,8948.00
2019-05-25T10:54:41.018Z,8656.00
2019-05-25T10:55:41.015Z,10060.00
2019-05-25T10:56:41.001Z,8580.00
2019-05-25T10:57:46.021Z,8980.00
2019-05-25T10:58:40.979Z,9100.00
2019-05-25T10:59:52.516Z,8824.00
2019-05-25T11:00:41.953Z,11168.00
2019-05-25T11:01:40.942Z,14456.00
2019-05-25T11:02:40.946Z,11968.00
2019-05-25T11:03:40.918Z,14020.00
2019-05-25T11:04:40.912Z,15100.00
2019-05-25T11:05:40.901Z,28320.00
2019-05-25T11:06:40.891Z,61120.00
2019-05-25T11:07:40.895Z,44960.00
2019-05-25T11:08:45.888Z,51872.00
2019-05-25T11:09:40.853Z,32960.00
2019-05-25T11:10:40.843Z,14356.00
2019-05-25T11:11:40.835Z,13032.00
2019-05-25T11:12:40.849Z,11024.00
2019-05-25T11:13:40.814Z,10932.00
2019-05-25T11:14:40.806Z,12020.00
2019-05-25T11:15:40.789Z,12548.00
2019-05-25T11:16:40.786Z,7940.00
2019-05-25T11:17:40.773Z,6056.00
2019-05-25T11:18:40.774Z,4904.00
2019-05-25T11:19:45.768Z,4648.00
2019-05-25T11:20:40.736Z,4772.00
2019-05-25T11:21:40.723Z,4652.00
2019-05-25T11:22:40.728Z,5632.00
2019-05-25T11:23:40.715Z,6984.00
2019-05-25T11:24:40.692Z,7732.00
2019-05-25T11:25:40.683Z,7108.00
2019-05-25T11:26:40.673Z,6208.00
2019-05-25T11:27:40.661Z,6024.00
2019-05-25T11:28:40.661Z,6768.00
2019-05-25T11:29:40.638Z,7468.00
2019-05-25T11:30:45.653Z,7992.00
2019-05-25T11:31:40.617Z,8104.00
2019-05-25T11:32:40.602Z,8604.00
2019-05-25T11:33:40.608Z,8784.00
2019-05-25T11:34:40.584Z,8876.00
2019-05-25T11:35:40.616Z,9520.00
2019-05-25T11:36:40.565Z,10064.00
2019-05-25T11:37:40.550Z,12080.00
2019-05-25T11:38:40.565Z,16480.00
2019-05-25T11:39:40.533Z,15392.00
2019-05-25T11:40:40.529Z,12948.00
2019-05-25T11:41:45.529Z,13604.00
2019-05-25T11:42:40.529Z,16096.00
2019-05-25T11:43:40.486Z,19200.00
2019-05-25T11:44:40.494Z,18240.00
2019-05-25T11:45:40.469Z,21056.00
2019-05-25T11:46:40.452Z,28832.00
2019-05-25T11:47:40.444Z,38624.00
2019-05-25T11:48:40.429Z,47072.00
2019-05-25T11:49:40.428Z,60448.00
2019-05-25T11:50:40.405Z,71456.00
2019-05-25T11:51:40.398Z,73920.00
2019-05-25T11:52:45.705Z,73120.00
2019-05-25T11:53:40.378Z,52384.00
2019-05-25T11:54:40.371Z,23552.00
2019-05-25T11:55:40.351Z,52288.00
2019-05-25T11:56:40.347Z,74048.00
2019-05-25T11:57:40.331Z,43872.00
2019-05-25T11:58:47.549Z,71168.00
2019-05-25T11:59:41.326Z,75200.00
2019-05-25T12:00:40.295Z,75488.00
2019-05-25T12:01:40.300Z,26944.00
2019-05-25T12:02:40.276Z,56928.00
2019-05-25T12:03:45.287Z,64832.00
2019-05-25T12:04:40.267Z,62112.00
2019-05-25T12:05:40.275Z,62400.00
2019-05-25T12:06:40.231Z,79264.00
2019-05-25T12:07:43.964Z,74560.00
2019-05-25T12:08:40.210Z,65344.00
2019-05-25T12:09:40.226Z,78528.00
2019-05-25T12:10:40.193Z,75328.00
2019-05-25T12:11:40.184Z,71840.00
2019-05-25T12:12:40.169Z,56480.00
2019-05-25T12:13:40.164Z,24032.00
2019-05-25T12:14:45.180Z,65632.00
2019-05-25T12:15:40.164Z,18240.00
2019-05-25T12:16:40.151Z,54656.00
2019-05-25T12:17:40.126Z,86912.00
2019-05-25T12:18:40.109Z,81504.00
2019-05-25T12:19:40.109Z,84800.00
2019-05-25T12:20:40.081Z,64032.00
2019-05-25T12:21:40.082Z,27168.00
2019-05-25T12:22:40.127Z,11948.00
2019-05-25T12:23:40.061Z,11140.00
2019-05-25T12:24:40.053Z,11968.00